Don Torcuato, Argentina
Current Conditions -  °F | °C
As of 7:00 AM on Monday 22 Dec 2014 (Local Time) from SADF Reporting Station
Few Clouds Few Clouds  
Wind Chill: 57°   Ceiling: Unl
Heat Index: 57°   Visibility: 6mi
Dew Point: 50°   Wind: 6mph
Humidity: 77%   Direction: 180°S
Pressure: 30"   Gusts: NA
Location:  34.5°S, 58.63°W
Report Text: SADF 221000Z 18005KT 9999 FEW045TCU 14/10 Q1016
Loading
Personal Weather Stations






























Interactive Weather Map New forecast layout! Learn more

10-Day Weather Forecast

Advertisements
Track Severe Weather on mobile